Airfield :
LOGIN :

Register | Disclaimer

   EN    FR    IT 

 










Legend :    VFR   Marginal VFR   IFR   Intensive IFR   Very Intensive IFR
Visi :
Ceiling :
>= 8 km
>= 3000ft
5 to 8 km
1000 to 3000 ft
1500m to 5 km
500 to 1000 ft
800 to 1500m
200 to 500 ft
< 800m
< 200 ft
Symbols :   Thunderstorms  Fog  Heavy snow  Heavy precipitations  Wind > 20 kt
SIGMETs :     Misc.  Thunderstorms  Icing  Turbulence  Mountain Waves  Volcanic Ashes







- Airport Elevation : 32 ft
- IATA code : LKZ


EGUL - RAF Lakenheath

CURRENT METAR :
  • 190756Z AUTO 06013KT 9999 CLR 07/03 A3024 RMK AO2 DZB28E29RAB29E54 SLP244 P0000 T00720027 $

EXPIRED METARs :
  • 190656Z AUTO 06009KT 9999 CLR 08/02 A3024 RMK AO2 SLP244 T00770022 $
  • 190556Z AUTO 06010KT 9999 CLR 08/02 A3025 RMK AO2 SLP247 T00750024 10075 20068 57008 $

TAF AMD TAF EGUL
Valid from the 19 at 05:00 until the 20 at 10:00 UTC


190541Z 1905/2010 07009KT 9999 SCT015 OVC025 QNH3022INS
BECMG 1911/1912 07015G20KT 9000 -RA BKN012 OVC030 620208 QNH3012INS
TEMPO 1912/1917 8000 -RA
BECMG 1916/1917 06012G18KT 9999 NSW BKN012 OVC030 620129 QNH3008INS TX08/1912Z TN04/2004Z
No reported NOTAMs for that airfield.



MET'MAP, your aeronautical weather chart ! - Copyright ORBIFLY December 2007 - Disclaimer

ORBIFLY MET'MAP TEAM :

Programming & Development : Alexandra Zaïnal
Concept & Development : Baudouin d'Aumeries
Co-Development & Prog : Marc-Olivier Méhu
Technical & hardware support : Manuel Goepfert

Contact : metmap@orbifly.com




SOURCES & CREDITS :

   NOAA